sensor_id;sensor_type;location;lat;lon;timestamp;P1;durP1;ratioP1;P2;durP2;ratioP2
23714;SDS011;12036;50.858;4.472;2023-07-24T00:01:18;13.85;;;4.00;;
23714;SDS011;12036;50.858;4.472;2023-07-24T00:03:44;12.48;;;3.92;;
23714;SDS011;12036;50.858;4.472;2023-07-24T00:06:10;13.82;;;4.05;;
23714;SDS011;12036;50.858;4.472;2023-07-24T00:08:36;17.77;;;4.40;;
23714;SDS011;12036;50.858;4.472;2023-07-24T00:11:02;14.00;;;3.22;;
23714;SDS011;12036;50.858;4.472;2023-07-24T00:13:29;12.75;;;3.95;;
23714;SDS011;12036;50.858;4.472;2023-07-24T00:15:56;6.50;;;3.60;;
23714;SDS011;12036;50.858;4.472;2023-07-24T00:18:22;11.55;;;4.05;;
23714;SDS011;12036;50.858;4.472;2023-07-24T00:20:48;11.30;;;3.35;;
23714;SDS011;12036;50.858;4.472;2023-07-24T00:23:13;13.48;;;3.75;;
23714;SDS011;12036;50.858;4.472;2023-07-24T00:25:39;13.52;;;3.90;;
23714;SDS011;12036;50.858;4.472;2023-07-24T00:28:05;11.63;;;4.28;;
23714;SDS011;12036;50.858;4.472;2023-07-24T00:30:30;12.02;;;4.45;;
23714;SDS011;12036;50.858;4.472;2023-07-24T00:32:56;17.58;;;4.22;;
23714;SDS011;12036;50.858;4.472;2023-07-24T00:35:22;9.35;;;4.25;;
23714;SDS011;12036;50.858;4.472;2023-07-24T00:37:47;13.32;;;4.07;;
23714;SDS011;12036;50.858;4.472;2023-07-24T00:40:13;13.10;;;4.40;;
23714;SDS011;12036;50.858;4.472;2023-07-24T00:42:39;9.20;;;4.20;;
23714;SDS011;12036;50.858;4.472;2023-07-24T00:45:04;13.55;;;4.18;;
23714;SDS011;12036;50.858;4.472;2023-07-24T00:47:31;13.65;;;4.00;;
23714;SDS011;12036;50.858;4.472;2023-07-24T00:49:57;13.27;;;4.05;;
23714;SDS011;12036;50.858;4.472;2023-07-24T00:52:23;15.27;;;4.88;;
23714;SDS011;12036;50.858;4.472;2023-07-24T00:54:49;9.98;;;4.45;;
23714;SDS011;12036;50.858;4.472;2023-07-24T00:57:16;8.20;;;4.15;;
23714;SDS011;12036;50.858;4.472;2023-07-24T00:59:42;9.57;;;3.92;;
23714;SDS011;12036;50.858;4.472;2023-07-24T01:02:08;9.27;;;4.10;;
23714;SDS011;12036;50.858;4.472;2023-07-24T01:04:34;8.93;;;4.22;;
23714;SDS011;12036;50.858;4.472;2023-07-24T01:07:00;12.35;;;5.00;;
23714;SDS011;12036;50.858;4.472;2023-07-24T01:09:25;6.35;;;4.10;;
23714;SDS011;12036;50.858;4.472;2023-07-24T01:11:59;12.77;;;4.40;;
23714;SDS011;12036;50.858;4.472;2023-07-24T01:17:04;12.50;;;4.68;;
23714;SDS011;12036;50.858;4.472;2023-07-24T01:19:37;12.77;;;4.35;;
23714;SDS011;12036;50.858;4.472;2023-07-24T01:24:37;11.63;;;4.80;;
23714;SDS011;12036;50.858;4.472;2023-07-24T01:27:24;15.00;;;4.60;;
23714;SDS011;12036;50.858;4.472;2023-07-24T01:29:50;9.95;;;4.53;;
23714;SDS011;12036;50.858;4.472;2023-07-24T01:32:16;10.93;;;4.07;;
23714;SDS011;12036;50.858;4.472;2023-07-24T01:34:43;10.70;;;4.00;;
23714;SDS011;12036;50.858;4.472;2023-07-24T01:37:09;12.55;;;3.85;;
23714;SDS011;12036;50.858;4.472;2023-07-24T01:39:35;7.75;;;3.60;;
23714;SDS011;12036;50.858;4.472;2023-07-24T01:42:02;7.15;;;4.10;;
23714;SDS011;12036;50.858;4.472;2023-07-24T01:44:28;10.68;;;3.88;;
23714;SDS011;12036;50.858;4.472;2023-07-24T01:46:53;9.05;;;3.80;;
23714;SDS011;12036;50.858;4.472;2023-07-24T01:49:19;8.05;;;3.72;;
23714;SDS011;12036;50.858;4.472;2023-07-24T01:51:44;12.18;;;4.13;;
23714;SDS011;12036;50.858;4.472;2023-07-24T01:54:10;10.85;;;3.92;;
23714;SDS011;12036;50.858;4.472;2023-07-24T01:56:36;11.80;;;3.88;;
23714;SDS011;12036;50.858;4.472;2023-07-24T01:59:04;6.65;;;3.70;;
23714;SDS011;12036;50.858;4.472;2023-07-24T02:01:30;7.47;;;3.72;;
23714;SDS011;12036;50.858;4.472;2023-07-24T02:03:55;13.90;;;3.70;;
23714;SDS011;12036;50.858;4.472;2023-07-24T02:06:21;19.55;;;3.72;;
23714;SDS011;12036;50.858;4.472;2023-07-24T02:08:47;7.82;;;3.65;;
23714;SDS011;12036;50.858;4.472;2023-07-24T02:11:16;6.32;;;3.50;;
23714;SDS011;12036;50.858;4.472;2023-07-24T02:13:43;6.68;;;3.20;;
23714;SDS011;12036;50.858;4.472;2023-07-24T02:16:10;3.83;;;2.53;;
23714;SDS011;12036;50.858;4.472;2023-07-24T02:18:41;4.75;;;2.70;;
23714;SDS011;12036;50.858;4.472;2023-07-24T02:21:07;6.05;;;2.25;;
23714;SDS011;12036;50.858;4.472;2023-07-24T02:23:33;5.15;;;2.40;;
23714;SDS011;12036;50.858;4.472;2023-07-24T02:25:59;4.57;;;2.50;;
23714;SDS011;12036;50.858;4.472;2023-07-24T02:28:25;9.60;;;2.60;;
23714;SDS011;12036;50.858;4.472;2023-07-24T02:30:51;5.18;;;2.63;;
23714;SDS011;12036;50.858;4.472;2023-07-24T02:33:20;3.40;;;2.30;;
23714;SDS011;12036;50.858;4.472;2023-07-24T02:35:46;9.20;;;2.40;;
23714;SDS011;12036;50.858;4.472;2023-07-24T02:38:12;7.65;;;2.75;;
23714;SDS011;12036;50.858;4.472;2023-07-24T02:40:40;5.13;;;2.45;;
23714;SDS011;12036;50.858;4.472;2023-07-24T02:43:06;7.60;;;2.67;;
23714;SDS011;12036;50.858;4.472;2023-07-24T02:45:34;6.82;;;2.10;;
23714;SDS011;12036;50.858;4.472;2023-07-24T02:47:59;7.03;;;2.38;;
23714;SDS011;12036;50.858;4.472;2023-07-24T02:50:27;3.05;;;2.28;;
23714;SDS011;12036;50.858;4.472;2023-07-24T02:52:52;5.82;;;2.15;;
23714;SDS011;12036;50.858;4.472;2023-07-24T02:55:18;4.38;;;1.88;;
23714;SDS011;12036;50.858;4.472;2023-07-24T02:57:43;3.88;;;1.80;;
23714;SDS011;12036;50.858;4.472;2023-07-24T03:00:09;2.15;;;1.40;;
23714;SDS011;12036;50.858;4.472;2023-07-24T03:02:35;4.03;;;1.40;;
23714;SDS011;12036;50.858;4.472;2023-07-24T03:05:01;1.70;;;1.30;;
23714;SDS011;12036;50.858;4.472;2023-07-24T03:07:27;6.75;;;1.60;;
23714;SDS011;12036;50.858;4.472;2023-07-24T03:09:53;2.88;;;1.45;;
23714;SDS011;12036;50.858;4.472;2023-07-24T03:12:19;2.17;;;1.42;;
23714;SDS011;12036;50.858;4.472;2023-07-24T03:14:44;1.33;;;1.00;;
23714;SDS011;12036;50.858;4.472;2023-07-24T03:17:10;1.63;;;1.20;;
23714;SDS011;12036;50.858;4.472;2023-07-24T03:19:37;1.73;;;1.10;;
23714;SDS011;12036;50.858;4.472;2023-07-24T03:22:03;1.40;;;0.90;;
23714;SDS011;12036;50.858;4.472;2023-07-24T03:24:28;2.83;;;1.10;;
23714;SDS011;12036;50.858;4.472;2023-07-24T03:26:54;1.95;;;1.10;;
23714;SDS011;12036;50.858;4.472;2023-07-24T03:29:19;2.13;;;1.20;;
23714;SDS011;12036;50.858;4.472;2023-07-24T03:31:45;3.13;;;1.20;;
23714;SDS011;12036;50.858;4.472;2023-07-24T03:34:11;2.17;;;1.20;;
23714;SDS011;12036;50.858;4.472;2023-07-24T03:36:36;1.60;;;1.38;;
23714;SDS011;12036;50.858;4.472;2023-07-24T03:39:06;1.50;;;1.17;;
23714;SDS011;12036;50.858;4.472;2023-07-24T03:41:32;3.35;;;1.13;;
23714;SDS011;12036;50.858;4.472;2023-07-24T03:43:57;1.73;;;1.45;;
23714;SDS011;12036;50.858;4.472;2023-07-24T03:46:23;1.40;;;1.00;;
23714;SDS011;12036;50.858;4.472;2023-07-24T03:48:49;3.00;;;0.98;;
23714;SDS011;12036;50.858;4.472;2023-07-24T03:51:15;2.83;;;1.15;;
23714;SDS011;12036;50.858;4.472;2023-07-24T03:53:41;1.27;;;1.10;;
23714;SDS011;12036;50.858;4.472;2023-07-24T03:56:07;2.40;;;1.48;;
23714;SDS011;12036;50.858;4.472;2023-07-24T03:58:33;3.38;;;0.88;;
23714;SDS011;12036;50.858;4.472;2023-07-24T04:00:58;1.85;;;1.13;;
23714;SDS011;12036;50.858;4.472;2023-07-24T04:03:24;4.47;;;1.20;;
23714;SDS011;12036;50.858;4.472;2023-07-24T04:05:50;3.05;;;1.15;;
23714;SDS011;12036;50.858;4.472;2023-07-24T04:08:15;3.58;;;1.30;;
23714;SDS011;12036;50.858;4.472;2023-07-24T04:10:41;1.75;;;1.20;;
23714;SDS011;12036;50.858;4.472;2023-07-24T04:13:06;1.70;;;1.08;;
23714;SDS011;12036;50.858;4.472;2023-07-24T04:15:32;1.50;;;1.20;;
23714;SDS011;12036;50.858;4.472;2023-07-24T04:17:58;2.60;;;1.17;;
23714;SDS011;12036;50.858;4.472;2023-07-24T04:20:23;2.05;;;1.10;;
23714;SDS011;12036;50.858;4.472;2023-07-24T04:22:49;1.27;;;0.90;;
23714;SDS011;12036;50.858;4.472;2023-07-24T04:25:15;1.20;;;0.93;;
23714;SDS011;12036;50.858;4.472;2023-07-24T04:27:41;1.95;;;1.10;;
23714;SDS011;12036;50.858;4.472;2023-07-24T04:30:06;1.52;;;1.10;;
23714;SDS011;12036;50.858;4.472;2023-07-24T04:32:32;3.03;;;1.33;;
23714;SDS011;12036;50.858;4.472;2023-07-24T04:34:58;2.00;;;1.08;;
23714;SDS011;12036;50.858;4.472;2023-07-24T04:37:24;1.77;;;1.20;;
23714;SDS011;12036;50.858;4.472;2023-07-24T04:39:49;6.07;;;1.05;;
23714;SDS011;12036;50.858;4.472;2023-07-24T04:42:15;1.85;;;1.05;;
23714;SDS011;12036;50.858;4.472;2023-07-24T04:44:40;1.10;;;0.90;;
23714;SDS011;12036;50.858;4.472;2023-07-24T04:47:06;4.45;;;1.10;;
23714;SDS011;12036;50.858;4.472;2023-07-24T04:49:32;2.00;;;1.20;;
23714;SDS011;12036;50.858;4.472;2023-07-24T04:51:58;1.55;;;1.05;;
23714;SDS011;12036;50.858;4.472;2023-07-24T04:54:24;1.63;;;1.10;;
23714;SDS011;12036;50.858;4.472;2023-07-24T04:56:50;1.73;;;1.00;;
23714;SDS011;12036;50.858;4.472;2023-07-24T04:59:16;1.95;;;1.10;;
23714;SDS011;12036;50.858;4.472;2023-07-24T05:01:41;1.30;;;0.93;;
23714;SDS011;12036;50.858;4.472;2023-07-24T05:04:07;2.35;;;1.20;;
23714;SDS011;12036;50.858;4.472;2023-07-24T05:06:33;5.40;;;1.17;;
23714;SDS011;12036;50.858;4.472;2023-07-24T05:09:00;2.28;;;1.10;;
23714;SDS011;12036;50.858;4.472;2023-07-24T05:11:26;2.95;;;1.13;;
23714;SDS011;12036;50.858;4.472;2023-07-24T05:13:52;2.67;;;1.02;;
23714;SDS011;12036;50.858;4.472;2023-07-24T05:16:18;6.07;;;1.30;;
23714;SDS011;12036;50.858;4.472;2023-07-24T05:18:43;1.52;;;1.23;;
23714;SDS011;12036;50.858;4.472;2023-07-24T05:21:09;1.85;;;1.10;;
23714;SDS011;12036;50.858;4.472;2023-07-24T05:23:34;4.07;;;1.27;;
23714;SDS011;12036;50.858;4.472;2023-07-24T05:26:00;2.35;;;1.20;;
23714;SDS011;12036;50.858;4.472;2023-07-24T05:28:28;2.22;;;1.38;;
23714;SDS011;12036;50.858;4.472;2023-07-24T05:30:54;1.95;;;1.40;;
23714;SDS011;12036;50.858;4.472;2023-07-24T05:33:20;6.05;;;1.40;;
23714;SDS011;12036;50.858;4.472;2023-07-24T05:35:46;6.28;;;1.63;;
23714;SDS011;12036;50.858;4.472;2023-07-24T05:38:13;1.50;;;1.30;;
23714;SDS011;12036;50.858;4.472;2023-07-24T05:40:39;5.00;;;1.60;;
23714;SDS011;12036;50.858;4.472;2023-07-24T05:43:04;4.00;;;1.60;;
23714;SDS011;12036;50.858;4.472;2023-07-24T05:45:30;2.78;;;1.70;;
23714;SDS011;12036;50.858;4.472;2023-07-24T05:47:55;1.83;;;1.50;;
23714;SDS011;12036;50.858;4.472;2023-07-24T05:50:21;3.58;;;1.52;;
23714;SDS011;12036;50.858;4.472;2023-07-24T05:52:46;3.20;;;1.33;;
23714;SDS011;12036;50.858;4.472;2023-07-24T05:55:12;2.38;;;1.50;;
23714;SDS011;12036;50.858;4.472;2023-07-24T05:57:38;1.65;;;1.35;;
23714;SDS011;12036;50.858;4.472;2023-07-24T06:00:04;3.90;;;1.80;;
23714;SDS011;12036;50.858;4.472;2023-07-24T06:02:31;2.50;;;1.77;;
23714;SDS011;12036;50.858;4.472;2023-07-24T06:04:56;2.67;;;1.70;;
23714;SDS011;12036;50.858;4.472;2023-07-24T06:07:22;2.20;;;1.60;;
23714;SDS011;12036;50.858;4.472;2023-07-24T06:09:48;2.40;;;1.27;;
23714;SDS011;12036;50.858;4.472;2023-07-24T06:12:14;3.67;;;1.83;;
23714;SDS011;12036;50.858;4.472;2023-07-24T06:14:40;3.80;;;1.50;;
23714;SDS011;12036;50.858;4.472;2023-07-24T06:17:06;4.03;;;1.55;;
23714;SDS011;12036;50.858;4.472;2023-07-24T06:19:31;2.15;;;1.73;;
23714;SDS011;12036;50.858;4.472;2023-07-24T06:21:57;3.15;;;1.38;;
23714;SDS011;12036;50.858;4.472;2023-07-24T06:24:23;3.85;;;1.65;;
23714;SDS011;12036;50.858;4.472;2023-07-24T06:26:49;2.00;;;1.50;;
23714;SDS011;12036;50.858;4.472;2023-07-24T06:29:15;3.20;;;1.67;;
23714;SDS011;12036;50.858;4.472;2023-07-24T06:31:40;7.03;;;1.90;;
23714;SDS011;12036;50.858;4.472;2023-07-24T06:34:06;2.53;;;1.90;;
23714;SDS011;12036;50.858;4.472;2023-07-24T06:36:32;2.45;;;1.60;;
23714;SDS011;12036;50.858;4.472;2023-07-24T06:38:58;1.73;;;1.50;;
23714;SDS011;12036;50.858;4.472;2023-07-24T06:41:23;3.88;;;1.63;;
23714;SDS011;12036;50.858;4.472;2023-07-24T06:43:50;2.88;;;1.65;;
23714;SDS011;12036;50.858;4.472;2023-07-24T06:46:16;5.35;;;1.90;;
23714;SDS011;12036;50.858;4.472;2023-07-24T06:48:42;2.85;;;1.58;;
23714;SDS011;12036;50.858;4.472;2023-07-24T06:51:07;4.60;;;2.10;;
23714;SDS011;12036;50.858;4.472;2023-07-24T06:53:33;2.15;;;1.40;;
23714;SDS011;12036;50.858;4.472;2023-07-24T06:55:59;2.80;;;1.13;;
23714;SDS011;12036;50.858;4.472;2023-07-24T06:58:24;2.05;;;1.30;;
23714;SDS011;12036;50.858;4.472;2023-07-24T07:00:50;1.30;;;1.10;;
23714;SDS011;12036;50.858;4.472;2023-07-24T07:03:16;2.25;;;1.38;;
23714;SDS011;12036;50.858;4.472;2023-07-24T07:05:41;4.53;;;1.40;;
23714;SDS011;12036;50.858;4.472;2023-07-24T07:08:07;1.50;;;1.30;;
23714;SDS011;12036;50.858;4.472;2023-07-24T07:10:33;4.25;;;1.33;;
23714;SDS011;12036;50.858;4.472;2023-07-24T07:12:58;4.75;;;1.30;;
23714;SDS011;12036;50.858;4.472;2023-07-24T07:15:24;1.77;;;1.30;;
23714;SDS011;12036;50.858;4.472;2023-07-24T07:17:50;4.32;;;1.50;;
23714;SDS011;12036;50.858;4.472;2023-07-24T07:20:15;1.58;;;1.35;;
23714;SDS011;12036;50.858;4.472;2023-07-24T07:22:41;1.92;;;1.38;;
23714;SDS011;12036;50.858;4.472;2023-07-24T07:25:07;3.45;;;1.38;;
23714;SDS011;12036;50.858;4.472;2023-07-24T07:27:33;4.80;;;1.58;;
23714;SDS011;12036;50.858;4.472;2023-07-24T07:29:58;3.25;;;1.25;;
23714;SDS011;12036;50.858;4.472;2023-07-24T07:32:24;3.42;;;1.30;;
23714;SDS011;12036;50.858;4.472;2023-07-24T07:34:50;2.90;;;1.33;;
23714;SDS011;12036;50.858;4.472;2023-07-24T07:37:15;8.52;;;1.58;;
23714;SDS011;12036;50.858;4.472;2023-07-24T07:39:41;3.65;;;1.77;;
23714;SDS011;12036;50.858;4.472;2023-07-24T07:42:07;2.85;;;1.50;;
23714;SDS011;12036;50.858;4.472;2023-07-24T07:44:32;1.75;;;1.48;;
23714;SDS011;12036;50.858;4.472;2023-07-24T07:46:58;5.20;;;1.40;;
23714;SDS011;12036;50.858;4.472;2023-07-24T07:49:23;2.25;;;1.52;;
23714;SDS011;12036;50.858;4.472;2023-07-24T07:51:49;2.60;;;1.40;;
23714;SDS011;12036;50.858;4.472;2023-07-24T07:54:15;2.53;;;1.30;;
23714;SDS011;12036;50.858;4.472;2023-07-24T07:56:41;1.83;;;1.48;;
23714;SDS011;12036;50.858;4.472;2023-07-24T07:59:07;4.85;;;1.42;;
23714;SDS011;12036;50.858;4.472;2023-07-24T08:01:33;13.05;;;1.95;;
23714;SDS011;12036;50.858;4.472;2023-07-24T08:04:00;3.85;;;1.20;;
23714;SDS011;12036;50.858;4.472;2023-07-24T08:06:26;8.73;;;1.45;;
23714;SDS011;12036;50.858;4.472;2023-07-24T08:08:52;3.10;;;1.40;;
23714;SDS011;12036;50.858;4.472;2023-07-24T08:11:17;2.40;;;1.30;;
23714;SDS011;12036;50.858;4.472;2023-07-24T08:13:43;3.15;;;1.15;;
23714;SDS011;12036;50.858;4.472;2023-07-24T08:16:17;2.35;;;1.38;;
23714;SDS011;12036;50.858;4.472;2023-07-24T08:18:45;1.63;;;1.33;;
23714;SDS011;12036;50.858;4.472;2023-07-24T08:21:12;2.95;;;1.30;;
23714;SDS011;12036;50.858;4.472;2023-07-24T08:23:38;3.33;;;1.23;;
23714;SDS011;12036;50.858;4.472;2023-07-24T08:26:05;2.00;;;1.30;;
23714;SDS011;12036;50.858;4.472;2023-07-24T08:28:31;3.63;;;2.10;;
23714;SDS011;12036;50.858;4.472;2023-07-24T08:30:57;2.83;;;1.60;;
23714;SDS011;12036;50.858;4.472;2023-07-24T08:33:23;1.75;;;1.40;;
23714;SDS011;12036;50.858;4.472;2023-07-24T08:36:05;4.93;;;1.58;;
23714;SDS011;12036;50.858;4.472;2023-07-24T08:38:32;2.72;;;1.60;;
23714;SDS011;12036;50.858;4.472;2023-07-24T08:41:02;3.50;;;2.17;;
23714;SDS011;12036;50.858;4.472;2023-07-24T08:43:29;5.27;;;2.07;;
23714;SDS011;12036;50.858;4.472;2023-07-24T08:45:58;3.13;;;1.75;;
23714;SDS011;12036;50.858;4.472;2023-07-24T08:48:26;4.22;;;2.00;;
23714;SDS011;12036;50.858;4.472;2023-07-24T08:50:54;6.53;;;1.80;;
23714;SDS011;12036;50.858;4.472;2023-07-24T08:53:21;3.40;;;2.13;;
23714;SDS011;12036;50.858;4.472;2023-07-24T08:55:48;3.72;;;2.25;;
23714;SDS011;12036;50.858;4.472;2023-07-24T08:58:16;6.50;;;2.20;;
23714;SDS011;12036;50.858;4.472;2023-07-24T09:00:42;5.93;;;2.17;;
23714;SDS011;12036;50.858;4.472;2023-07-24T09:03:07;10.02;;;2.28;;
23714;SDS011;12036;50.858;4.472;2023-07-24T09:05:33;4.20;;;2.22;;
23714;SDS011;12036;50.858;4.472;2023-07-24T09:07:59;3.67;;;2.05;;
23714;SDS011;12036;50.858;4.472;2023-07-24T09:10:25;6.03;;;1.98;;
23714;SDS011;12036;50.858;4.472;2023-07-24T09:12:51;2.88;;;2.20;;
23714;SDS011;12036;50.858;4.472;2023-07-24T09:15:17;4.28;;;2.40;;
23714;SDS011;12036;50.858;4.472;2023-07-24T09:17:53;2.83;;;1.98;;
23714;SDS011;12036;50.858;4.472;2023-07-24T09:20:19;9.20;;;2.20;;
23714;SDS011;12036;50.858;4.472;2023-07-24T09:22:52;4.20;;;2.25;;
23714;SDS011;12036;50.858;4.472;2023-07-24T09:25:19;3.53;;;1.92;;
23714;SDS011;12036;50.858;4.472;2023-07-24T09:27:55;6.32;;;2.08;;
23714;SDS011;12036;50.858;4.472;2023-07-24T09:30:20;2.75;;;2.15;;
23714;SDS011;12036;50.858;4.472;2023-07-24T09:32:52;4.45;;;2.10;;
23714;SDS011;12036;50.858;4.472;2023-07-24T09:35:19;5.10;;;2.67;;
23714;SDS011;12036;50.858;4.472;2023-07-24T09:37:45;22.70;;;4.72;;
23714;SDS011;12036;50.858;4.472;2023-07-24T09:40:12;7.68;;;2.33;;
23714;SDS011;12036;50.858;4.472;2023-07-24T09:42:40;12.13;;;2.97;;
23714;SDS011;12036;50.858;4.472;2023-07-24T09:45:06;8.10;;;3.00;;
23714;SDS011;12036;50.858;4.472;2023-07-24T09:47:33;5.07;;;2.35;;
23714;SDS011;12036;50.858;4.472;2023-07-24T09:49:59;6.10;;;2.53;;
23714;SDS011;12036;50.858;4.472;2023-07-24T09:52:29;12.88;;;3.13;;
23714;SDS011;12036;50.858;4.472;2023-07-24T09:57:26;6.10;;;2.53;;
23714;SDS011;12036;50.858;4.472;2023-07-24T09:59:54;3.65;;;2.35;;
23714;SDS011;12036;50.858;4.472;2023-07-24T10:02:22;4.22;;;2.30;;
23714;SDS011;12036;50.858;4.472;2023-07-24T10:04:48;3.25;;;2.10;;
23714;SDS011;12036;50.858;4.472;2023-07-24T10:07:14;4.40;;;2.42;;
23714;SDS011;12036;50.858;4.472;2023-07-24T10:09:42;6.88;;;2.20;;
23714;SDS011;12036;50.858;4.472;2023-07-24T10:12:09;3.35;;;2.22;;
23714;SDS011;12036;50.858;4.472;2023-07-24T10:14:35;3.28;;;2.15;;
23714;SDS011;12036;50.858;4.472;2023-07-24T10:17:02;2.75;;;2.10;;
23714;SDS011;12036;50.858;4.472;2023-07-24T10:19:43;3.20;;;1.98;;
23714;SDS011;12036;50.858;4.472;2023-07-24T10:22:10;3.03;;;1.95;;
23714;SDS011;12036;50.858;4.472;2023-07-24T10:24:45;5.03;;;2.15;;
23714;SDS011;12036;50.858;4.472;2023-07-24T10:27:11;5.07;;;2.25;;
23714;SDS011;12036;50.858;4.472;2023-07-24T10:29:37;2.85;;;1.70;;
23714;SDS011;12036;50.858;4.472;2023-07-24T10:32:04;4.50;;;2.30;;
23714;SDS011;12036;50.858;4.472;2023-07-24T10:34:39;4.03;;;1.92;;
23714;SDS011;12036;50.858;4.472;2023-07-24T10:37:07;2.72;;;1.90;;
23714;SDS011;12036;50.858;4.472;2023-07-24T10:39:39;6.80;;;2.50;;
23714;SDS011;12036;50.858;4.472;2023-07-24T10:42:06;3.25;;;2.15;;
23714;SDS011;12036;50.858;4.472;2023-07-24T10:44:33;2.45;;;1.77;;
23714;SDS011;12036;50.858;4.472;2023-07-24T10:46:59;3.38;;;2.22;;
23714;SDS011;12036;50.858;4.472;2023-07-24T10:49:24;2.65;;;1.80;;
23714;SDS011;12036;50.858;4.472;2023-07-24T10:51:56;2.97;;;1.88;;
23714;SDS011;12036;50.858;4.472;2023-07-24T10:54:23;2.47;;;1.98;;
23714;SDS011;12036;50.858;4.472;2023-07-24T10:56:48;2.05;;;1.80;;
23714;SDS011;12036;50.858;4.472;2023-07-24T10:59:14;3.28;;;1.98;;
23714;SDS011;12036;50.858;4.472;2023-07-24T11:01:40;2.60;;;1.77;;
23714;SDS011;12036;50.858;4.472;2023-07-24T11:04:11;3.22;;;2.30;;
23714;SDS011;12036;50.858;4.472;2023-07-24T11:06:37;3.55;;;2.10;;
23714;SDS011;12036;50.858;4.472;2023-07-24T11:09:03;2.67;;;1.90;;
23714;SDS011;12036;50.858;4.472;2023-07-24T11:11:29;2.30;;;1.85;;
23714;SDS011;12036;50.858;4.472;2023-07-24T11:13:55;3.28;;;2.15;;
23714;SDS011;12036;50.858;4.472;2023-07-24T11:16:21;3.58;;;2.30;;
23714;SDS011;12036;50.858;4.472;2023-07-24T11:18:47;4.40;;;1.75;;
23714;SDS011;12036;50.858;4.472;2023-07-24T11:21:16;3.67;;;2.33;;
23714;SDS011;12036;50.858;4.472;2023-07-24T11:23:49;5.03;;;2.40;;
23714;SDS011;12036;50.858;4.472;2023-07-24T11:26:20;4.10;;;2.20;;
23714;SDS011;12036;50.858;4.472;2023-07-24T11:28:48;3.60;;;2.42;;
23714;SDS011;12036;50.858;4.472;2023-07-24T11:31:17;5.72;;;2.28;;
23714;SDS011;12036;50.858;4.472;2023-07-24T11:33:46;2.95;;;2.17;;
23714;SDS011;12036;50.858;4.472;2023-07-24T11:36:15;6.60;;;2.38;;
23714;SDS011;12036;50.858;4.472;2023-07-24T11:38:44;4.00;;;2.35;;
23714;SDS011;12036;50.858;4.472;2023-07-24T11:41:10;5.50;;;2.65;;
23714;SDS011;12036;50.858;4.472;2023-07-24T11:43:44;3.42;;;2.47;;
23714;SDS011;12036;50.858;4.472;2023-07-24T11:46:24;3.30;;;2.58;;
23714;SDS011;12036;50.858;4.472;2023-07-24T11:48:53;3.55;;;2.28;;
23714;SDS011;12036;50.858;4.472;2023-07-24T11:51:21;3.47;;;2.50;;
23714;SDS011;12036;50.858;4.472;2023-07-24T11:53:49;5.15;;;2.80;;
23714;SDS011;12036;50.858;4.472;2023-07-24T11:56:15;3.67;;;2.60;;
23714;SDS011;12036;50.858;4.472;2023-07-24T11:58:42;3.65;;;2.53;;
23714;SDS011;12036;50.858;4.472;2023-07-24T12:01:08;3.80;;;2.47;;
23714;SDS011;12036;50.858;4.472;2023-07-24T12:03:34;4.35;;;2.42;;
23714;SDS011;12036;50.858;4.472;2023-07-24T12:06:00;5.00;;;2.75;;
23714;SDS011;12036;50.858;4.472;2023-07-24T12:08:33;2.92;;;2.58;;
23714;SDS011;12036;50.858;4.472;2023-07-24T12:11:00;3.65;;;2.78;;
23714;SDS011;12036;50.858;4.472;2023-07-24T12:13:26;7.68;;;3.15;;
23714;SDS011;12036;50.858;4.472;2023-07-24T12:15:53;3.58;;;2.72;;
23714;SDS011;12036;50.858;4.472;2023-07-24T12:18:19;3.20;;;2.45;;
23714;SDS011;12036;50.858;4.472;2023-07-24T12:20:44;3.95;;;2.70;;
23714;SDS011;12036;50.858;4.472;2023-07-24T12:23:10;5.88;;;2.92;;
23714;SDS011;12036;50.858;4.472;2023-07-24T12:25:41;5.13;;;2.70;;
23714;SDS011;12036;50.858;4.472;2023-07-24T12:28:06;4.90;;;2.78;;
23714;SDS011;12036;50.858;4.472;2023-07-24T12:30:32;5.00;;;2.78;;
23714;SDS011;12036;50.858;4.472;2023-07-24T12:32:57;7.07;;;2.28;;
23714;SDS011;12036;50.858;4.472;2023-07-24T12:35:23;5.20;;;2.50;;
23714;SDS011;12036;50.858;4.472;2023-07-24T12:37:49;3.97;;;2.30;;
23714;SDS011;12036;50.858;4.472;2023-07-24T12:40:14;4.28;;;2.38;;
23714;SDS011;12036;50.858;4.472;2023-07-24T12:42:40;5.32;;;2.10;;
23714;SDS011;12036;50.858;4.472;2023-07-24T12:45:06;4.28;;;2.20;;
23714;SDS011;12036;50.858;4.472;2023-07-24T12:47:32;2.70;;;2.08;;
23714;SDS011;12036;50.858;4.472;2023-07-24T12:49:58;5.05;;;2.60;;
23714;SDS011;12036;50.858;4.472;2023-07-24T12:52:24;3.85;;;2.63;;
23714;SDS011;12036;50.858;4.472;2023-07-24T12:54:50;5.68;;;2.17;;
23714;SDS011;12036;50.858;4.472;2023-07-24T12:57:16;5.75;;;2.75;;
23714;SDS011;12036;50.858;4.472;2023-07-24T12:59:42;4.40;;;2.22;;
23714;SDS011;12036;50.858;4.472;2023-07-24T13:02:08;4.03;;;2.58;;
23714;SDS011;12036;50.858;4.472;2023-07-24T13:04:33;2.88;;;1.98;;
23714;SDS011;12036;50.858;4.472;2023-07-24T13:06:59;3.50;;;2.25;;
23714;SDS011;12036;50.858;4.472;2023-07-24T13:09:25;4.00;;;2.10;;
23714;SDS011;12036;50.858;4.472;2023-07-24T13:11:52;4.60;;;2.00;;
23714;SDS011;12036;50.858;4.472;2023-07-24T13:14:19;3.72;;;2.22;;
23714;SDS011;12036;50.858;4.472;2023-07-24T13:16:45;3.80;;;2.10;;
23714;SDS011;12036;50.858;4.472;2023-07-24T13:19:11;3.92;;;2.08;;
23714;SDS011;12036;50.858;4.472;2023-07-24T13:21:36;4.63;;;2.63;;
23714;SDS011;12036;50.858;4.472;2023-07-24T13:24:02;3.85;;;2.50;;
23714;SDS011;12036;50.858;4.472;2023-07-24T13:26:28;5.10;;;2.60;;
23714;SDS011;12036;50.858;4.472;2023-07-24T13:28:53;4.15;;;2.33;;
23714;SDS011;12036;50.858;4.472;2023-07-24T13:31:19;6.68;;;2.70;;
23714;SDS011;12036;50.858;4.472;2023-07-24T13:33:47;3.10;;;2.45;;
23714;SDS011;12036;50.858;4.472;2023-07-24T13:36:13;4.13;;;2.80;;
23714;SDS011;12036;50.858;4.472;2023-07-24T13:38:39;5.25;;;2.70;;
23714;SDS011;12036;50.858;4.472;2023-07-24T13:41:05;4.75;;;2.80;;
23714;SDS011;12036;50.858;4.472;2023-07-24T13:43:31;4.95;;;2.75;;
23714;SDS011;12036;50.858;4.472;2023-07-24T13:45:58;4.97;;;2.78;;
23714;SDS011;12036;50.858;4.472;2023-07-24T13:48:24;4.68;;;2.78;;
23714;SDS011;12036;50.858;4.472;2023-07-24T13:50:53;4.65;;;2.45;;
23714;SDS011;12036;50.858;4.472;2023-07-24T13:53:19;3.17;;;2.53;;
23714;SDS011;12036;50.858;4.472;2023-07-24T13:55:45;4.55;;;3.00;;
23714;SDS011;12036;50.858;4.472;2023-07-24T13:58:11;3.45;;;2.63;;
23714;SDS011;12036;50.858;4.472;2023-07-24T14:00:36;5.80;;;2.13;;
23714;SDS011;12036;50.858;4.472;2023-07-24T14:03:02;2.75;;;2.03;;
23714;SDS011;12036;50.858;4.472;2023-07-24T14:05:28;2.58;;;1.77;;
23714;SDS011;12036;50.858;4.472;2023-07-24T14:07:53;2.95;;;1.92;;
23714;SDS011;12036;50.858;4.472;2023-07-24T14:10:19;2.13;;;1.90;;
23714;SDS011;12036;50.858;4.472;2023-07-24T14:12:45;3.33;;;2.35;;
23714;SDS011;12036;50.858;4.472;2023-07-24T14:15:11;3.63;;;2.40;;
23714;SDS011;12036;50.858;4.472;2023-07-24T14:17:37;6.47;;;2.20;;
23714;SDS011;12036;50.858;4.472;2023-07-24T14:20:03;4.68;;;2.40;;
23714;SDS011;12036;50.858;4.472;2023-07-24T14:22:29;2.97;;;2.50;;
23714;SDS011;12036;50.858;4.472;2023-07-24T14:24:54;4.07;;;2.60;;
23714;SDS011;12036;50.858;4.472;2023-07-24T14:27:20;3.33;;;2.50;;
23714;SDS011;12036;50.858;4.472;2023-07-24T14:29:45;4.90;;;2.33;;
23714;SDS011;12036;50.858;4.472;2023-07-24T14:32:11;2.58;;;2.13;;
23714;SDS011;12036;50.858;4.472;2023-07-24T14:34:37;3.45;;;2.10;;
23714;SDS011;12036;50.858;4.472;2023-07-24T14:37:02;3.28;;;2.28;;
23714;SDS011;12036;50.858;4.472;2023-07-24T14:39:28;5.10;;;2.40;;
23714;SDS011;12036;50.858;4.472;2023-07-24T14:41:54;4.30;;;2.30;;
23714;SDS011;12036;50.858;4.472;2023-07-24T14:44:19;3.22;;;2.22;;
23714;SDS011;12036;50.858;4.472;2023-07-24T14:46:45;3.35;;;2.40;;
23714;SDS011;12036;50.858;4.472;2023-07-24T14:49:11;2.53;;;2.03;;